KSLO/SLO METAR and TAF weather

Enter ICAO airport designator
Station Type Date Time Source
KSLO METAR 2021/07/30 07:35 UTC NOAA

KSLO 300735Z AUTO 00000KT 10SM CLR 23/23 A3000 RMK AO2 T02330230


Station Type Date Time Source
KSLO Decoded METAR 2021/07/30 07:35 UTC NOAA

Salem, Salem-Leckrone Airport, IL, United States (KSLO) 38-38-34N 088-57-51W 174M
Jul 30, 2021 - 03:35 AM EDT / 2021.07.30 0735 UTC
Wind: Calm:0
Visibility: 10 mile(s):0
Sky conditions: clear
Temperature: 73.9 F (23.3 C)
Dew Point: 73.4 F (23.0 C)
Relative Humidity: 98%
Pressure (altimeter): 30 in. Hg (1015 hPa)
ob: KSLO 300735Z AUTO 00000KT 10SM CLR 23/23 A3000 RMK AO2 T02330230
cycle: 7

Station Type Date Time Source
KSLO TAF UTC NOAA

Error!

Example: see airport list